Time;durP1;ratioP1;P1;durP2;ratioP2;P2;SDS_P1;SDS_P2;PMS_P1;PMS_P2;Temp;Humidity;BMP_temperature;BMP_pressure;BME280_temperature;BME280_humidity;BME280_pressure;Samples;Min_cycle;Max_cycle;Signal;HPM_P1;HPM_P2
2022/03/16 00:02:19;;;;;;;131.00;77.32;;;;;;;;;;5033925;28;20193;-63
2022/03/16 00:04:45;;;;;;;142.07;79.05;;;;;;;;;;5034321;28;20181;-63
2022/03/16 00:07:11;;;;;;;131.43;78.07;;;;;;;;;;5033768;28;20691;-62
2022/03/16 00:09:37;;;;;;;133.70;78.87;;;;;;;;;;5033962;28;20457;-63
2022/03/16 00:12:03;;;;;;;136.30;78.67;;;;;;;;;;5033535;28;20771;-62
2022/03/16 00:14:29;;;;;;;129.70;77.32;;;;;;;;;;5033662;28;20411;-62
2022/03/16 00:16:55;;;;;;;134.10;77.50;;;;;;;;;;5033760;28;20204;-62
2022/03/16 00:19:21;;;;;;;142.53;79.77;;;;;;;;;;5033592;28;20215;-62
2022/03/16 00:21:47;;;;;;;137.20;79.37;;;;;;;;;;5033344;28;20490;-63
2022/03/16 00:24:13;;;;;;;141.50;79.47;;;;;;;;;;5033507;28;20939;-63
2022/03/16 00:26:39;;;;;;;138.67;76.63;;;;;;;;;;5033317;28;20427;-63
2022/03/16 00:29:05;;;;;;;158.20;80.37;;;;;;;;;;5033458;28;20396;-62
2022/03/16 00:31:33;;;;;;;168.15;84.15;;;;;;;;;;5033149;28;20818;-62
2022/03/16 00:33:59;;;;;;;155.80;79.38;;;;;;;;;;5033474;28;20316;-62
2022/03/16 00:36:25;;;;;;;157.63;78.28;;;;;;;;;;5033372;28;20168;-62
2022/03/16 00:38:51;;;;;;;164.80;82.10;;;;;;;;;;5033326;28;20513;-63
2022/03/16 00:41:17;;;;;;;168.20;78.67;;;;;;;;;;5032972;28;20899;-63
2022/03/16 00:43:43;;;;;;;158.30;78.67;;;;;;;;;;5033273;28;20764;-63
2022/03/16 00:46:09;;;;;;;163.27;83.55;;;;;;;;;;5033148;28;20499;-62
2022/03/16 00:48:35;;;;;;;159.37;80.20;;;;;;;;;;5033205;28;20291;-63
2022/03/16 00:51:01;;;;;;;172.47;84.30;;;;;;;;;;5032825;28;20945;-63
2022/03/16 00:53:27;;;;;;;175.73;81.80;;;;;;;;;;5033037;28;20404;-63
2022/03/16 00:55:53;;;;;;;167.17;80.40;;;;;;;;;;5032874;28;20648;-63
2022/03/16 00:58:19;;;;;;;169.87;80.97;;;;;;;;;;5032974;28;20435;-63
2022/03/16 01:00:45;;;;;;;151.48;79.30;;;;;;;;;;5031993;28;20439;-63
2022/03/16 01:03:12;;;;;;;157.57;80.17;;;;;;;;;;5032718;28;20278;-63
2022/03/16 01:05:38;;;;;;;157.38;83.10;;;;;;;;;;5032834;28;20420;-63
2022/03/16 01:08:04;;;;;;;152.65;79.88;;;;;;;;;;5031665;28;20213;-63
2022/03/16 01:10:30;;;;;;;155.13;80.80;;;;;;;;;;5032321;28;20623;-63
2022/03/16 01:12:56;;;;;;;147.37;76.27;;;;;;;;;;5032879;28;20187;-63
2022/03/16 01:15:23;;;;;;;155.25;78.43;;;;;;;;;;5032675;28;20427;-63
2022/03/16 01:17:50;;;;;;;145.88;77.10;;;;;;;;;;5032489;28;20193;-63
2022/03/16 01:20:16;;;;;;;144.30;78.82;;;;;;;;;;5032518;28;20188;-62
2022/03/16 01:22:42;;;;;;;143.05;77.70;;;;;;;;;;5032469;28;20663;-63
2022/03/16 01:25:08;;;;;;;163.10;78.73;;;;;;;;;;5032269;28;20181;-63
2022/03/16 01:27:34;;;;;;;168.30;80.43;;;;;;;;;;5032355;28;20474;-62
2022/03/16 01:30:00;;;;;;;179.60;84.07;;;;;;;;;;5032297;28;20768;-63
2022/03/16 01:32:26;;;;;;;144.20;78.05;;;;;;;;;;5031955;28;20169;-63
2022/03/16 01:34:52;;;;;;;175.23;81.00;;;;;;;;;;5032263;28;20176;-63
2022/03/16 01:37:18;;;;;;;175.07;79.33;;;;;;;;;;5032074;28;20476;-63
2022/03/16 01:39:44;;;;;;;169.40;82.97;;;;;;;;;;5032089;28;20407;-63
2022/03/16 01:42:10;;;;;;;169.70;80.67;;;;;;;;;;5031933;28;20407;-63
2022/03/16 01:44:44;;;;;;;172.17;81.33;;;;;;;;;;5032045;28;20408;-63
2022/03/16 01:47:10;;;;;;;176.63;84.65;;;;;;;;;;5031834;28;20459;-63
2022/03/16 01:49:36;;;;;;;161.10;79.18;;;;;;;;;;5032040;28;20603;-63
2022/03/16 01:52:04;;;;;;;174.67;82.70;;;;;;;;;;5031747;28;20264;-63
2022/03/16 01:54:29;;;;;;;173.52;83.35;;;;;;;;;;5031823;28;20517;-63
2022/03/16 01:56:56;;;;;;;158.10;80.50;;;;;;;;;;5031778;28;20731;-63
2022/03/16 01:59:22;;;;;;;160.25;80.55;;;;;;;;;;5031769;28;20445;-63
2022/03/16 02:01:48;;;;;;;169.47;80.80;;;;;;;;;;5031563;28;20177;-63
2022/03/16 02:04:14;;;;;;;167.17;80.00;;;;;;;;;;5031756;28;20416;-63
2022/03/16 02:06:40;;;;;;;125.00;72.67;;;;;;;;;;5031322;28;20443;-63
2022/03/16 02:09:06;;;;;;;130.27;77.57;;;;;;;;;;5031672;28;20419;-63
2022/03/16 02:11:31;;;;;;;124.47;73.90;;;;;;;;;;5031462;28;20205;-63
2022/03/16 02:13:57;;;;;;;177.40;80.07;;;;;;;;;;5031456;28;20414;-63
2022/03/16 02:16:23;;;;;;;138.77;75.13;;;;;;;;;;5031373;28;20407;-63
2022/03/16 02:18:49;;;;;;;178.13;81.23;;;;;;;;;;5031616;28;20415;-63
2022/03/16 02:21:16;;;;;;;131.30;71.83;;;;;;;;;;5031228;28;20458;-63
2022/03/16 02:23:43;;;;;;;169.52;80.63;;;;;;;;;;5031914;28;20443;-63
2022/03/16 02:26:12;;;;;;;141.82;78.05;;;;;;;;;;5031430;28;20184;-63
2022/03/16 02:28:38;;;;;;;158.57;78.00;;;;;;;;;;5031508;28;20217;-63
2022/03/16 02:31:05;;;;;;;155.25;76.18;;;;;;;;;;5031304;28;20180;-63
2022/03/16 02:33:31;;;;;;;163.57;77.85;;;;;;;;;;5031453;28;20537;-63
2022/03/16 02:35:57;;;;;;;173.10;79.37;;;;;;;;;;5031300;28;20183;-63
2022/03/16 02:38:23;;;;;;;175.27;79.00;;;;;;;;;;5031305;28;20474;-63
2022/03/16 02:40:49;;;;;;;174.65;77.25;;;;;;;;;;5030964;28;20898;-63
2022/03/16 02:43:15;;;;;;;170.35;77.55;;;;;;;;;;5031553;28;20179;-63
2022/03/16 02:45:41;;;;;;;181.77;79.17;;;;;;;;;;5031408;28;20176;-62
2022/03/16 02:48:07;;;;;;;179.00;84.30;;;;;;;;;;5030716;28;20459;-63
2022/03/16 02:50:33;;;;;;;173.95;80.05;;;;;;;;;;5031081;28;20778;-63
2022/03/16 02:52:59;;;;;;;171.00;77.90;;;;;;;;;;5031202;28;20173;-63
2022/03/16 02:55:25;;;;;;;171.88;80.78;;;;;;;;;;5031156;28;20178;-63
2022/03/16 02:57:51;;;;;;;165.45;77.47;;;;;;;;;;5031108;28;20584;-63
2022/03/16 03:00:18;;;;;;;157.87;79.83;;;;;;;;;;5030727;28;20181;-63
2022/03/16 03:02:44;;;;;;;157.55;78.63;;;;;;;;;;5031713;28;20408;-63
2022/03/16 03:05:10;;;;;;;131.57;74.07;;;;;;;;;;5031149;28;20223;-63
2022/03/16 03:07:37;;;;;;;129.10;72.57;;;;;;;;;;5030826;28;20277;-63
2022/03/16 03:10:03;;;;;;;150.68;78.30;;;;;;;;;;5030954;28;20403;-63
2022/03/16 03:12:33;;;;;;;151.83;79.30;;;;;;;;;;5030909;28;20169;-62
2022/03/16 03:14:59;;;;;;;153.45;79.03;;;;;;;;;;5031063;28;21007;-62
2022/03/16 03:17:25;;;;;;;154.43;77.37;;;;;;;;;;5030931;28;20255;-64
2022/03/16 03:19:51;;;;;;;158.00;78.78;;;;;;;;;;5030966;28;20899;-63
2022/03/16 03:22:17;;;;;;;168.00;80.37;;;;;;;;;;5030837;28;20190;-63
2022/03/16 03:24:44;;;;;;;173.00;81.07;;;;;;;;;;5032797;28;20504;-63
2022/03/16 03:27:10;;;;;;;169.60;80.10;;;;;;;;;;5034498;28;20462;-63
2022/03/16 03:29:36;;;;;;;159.35;78.45;;;;;;;;;;5034494;28;20177;-63
2022/03/16 03:32:02;;;;;;;158.90;79.15;;;;;;;;;;5034543;28;20184;-63
2022/03/16 03:34:29;;;;;;;162.60;80.43;;;;;;;;;;5034559;28;20169;-63
2022/03/16 03:36:54;;;;;;;161.55;79.43;;;;;;;;;;5034463;28;20556;-63
2022/03/16 03:39:20;;;;;;;167.87;80.13;;;;;;;;;;5034464;28;20184;-63
2022/03/16 03:41:46;;;;;;;166.77;81.57;;;;;;;;;;5034191;28;20419;-63
2022/03/16 03:44:12;;;;;;;161.80;79.37;;;;;;;;;;5034236;28;20467;-63
2022/03/16 03:46:38;;;;;;;167.30;79.47;;;;;;;;;;5034177;28;20443;-63
2022/03/16 03:49:04;;;;;;;171.53;80.23;;;;;;;;;;5034272;28;21013;-62
2022/03/16 03:51:30;;;;;;;169.47;79.87;;;;;;;;;;5033853;28;20454;-63
2022/03/16 03:53:56;;;;;;;166.57;78.33;;;;;;;;;;5033978;28;20408;-63
2022/03/16 03:56:22;;;;;;;167.87;80.90;;;;;;;;;;5034056;28;20433;-63
2022/03/16 03:58:48;;;;;;;167.65;78.07;;;;;;;;;;5033026;28;20411;-63
2022/03/16 04:01:15;;;;;;;173.47;80.97;;;;;;;;;;5034141;28;20187;-63
2022/03/16 04:03:42;;;;;;;164.88;79.13;;;;;;;;;;5034138;28;20448;-63
2022/03/16 04:06:08;;;;;;;165.40;80.38;;;;;;;;;;5034103;28;20177;-63
2022/03/16 04:08:34;;;;;;;170.77;81.32;;;;;;;;;;5041953;22;20232;-61
2022/03/16 04:11:01;;;;;;;154.20;74.83;;;;;;;;;;5013305;28;20180;-59
2022/03/16 04:13:27;;;;;;;170.18;81.53;;;;;;;;;;5014260;28;20409;-61
2022/03/16 04:15:53;;;;;;;157.40;77.82;;;;;;;;;;5014150;28;20177;-61
2022/03/16 04:18:19;;;;;;;154.47;75.97;;;;;;;;;;5013880;28;20268;-61
2022/03/16 04:20:45;;;;;;;159.88;78.47;;;;;;;;;;5013726;28;20416;-60
2022/03/16 04:23:11;;;;;;;158.10;76.60;;;;;;;;;;5013400;28;20181;-61
2022/03/16 04:25:37;;;;;;;161.37;78.37;;;;;;;;;;5013858;28;20423;-60
2022/03/16 04:28:03;;;;;;;155.73;77.70;;;;;;;;;;5013558;28;20467;-60
2022/03/16 04:30:29;;;;;;;151.30;75.13;;;;;;;;;;5013473;28;20413;-60
2022/03/16 04:32:54;;;;;;;158.82;73.15;;;;;;;;;;5013741;28;20738;-61
2022/03/16 04:35:21;;;;;;;150.50;76.60;;;;;;;;;;5013029;28;20182;-61
2022/03/16 04:37:47;;;;;;;161.63;75.75;;;;;;;;;;5013137;28;20197;-61
2022/03/16 04:40:13;;;;;;;156.10;77.47;;;;;;;;;;5013360;28;20179;-60
2022/03/16 04:42:39;;;;;;;162.55;79.60;;;;;;;;;;5013455;28;20174;-61
2022/03/16 04:45:05;;;;;;;153.80;77.77;;;;;;;;;;5013363;28;20228;-58
2022/03/16 04:47:31;;;;;;;153.45;76.22;;;;;;;;;;5013260;28;21029;-60
2022/03/16 04:49:57;;;;;;;157.87;77.93;;;;;;;;;;5013356;28;20179;-61
2022/03/16 04:52:25;;;;;;;135.47;71.73;;;;;;;;;;5013135;28;20409;-61
2022/03/16 04:54:51;;;;;;;142.40;71.45;;;;;;;;;;5013426;28;20443;-60
2022/03/16 04:57:17;;;;;;;147.35;75.07;;;;;;;;;;5013203;28;20206;-61
2022/03/16 04:59:43;;;;;;;147.37;75.20;;;;;;;;;;5016456;28;20676;-57
2022/03/16 05:02:09;;;;;;;140.07;73.37;;;;;;;;;;5013062;28;20413;-58
2022/03/16 05:04:34;;;;;;;140.40;73.53;;;;;;;;;;5013120;28;20413;-58
2022/03/16 05:07:00;;;;;;;141.03;74.47;;;;;;;;;;5012802;28;20982;-59
2022/03/16 05:09:26;;;;;;;131.77;70.57;;;;;;;;;;5013056;28;20401;-59
2022/03/16 05:11:52;;;;;;;135.57;74.60;;;;;;;;;;5012665;28;20459;-59
2022/03/16 05:14:18;;;;;;;139.70;77.97;;;;;;;;;;5012773;28;20442;-57
2022/03/16 05:16:44;;;;;;;136.67;72.97;;;;;;;;;;5012841;28;20420;-58
2022/03/16 05:19:10;;;;;;;138.50;74.10;;;;;;;;;;5012849;28;20404;-58
2022/03/16 05:21:36;;;;;;;138.77;72.00;;;;;;;;;;5012606;28;20415;-59
2022/03/16 05:24:02;;;;;;;147.30;74.57;;;;;;;;;;5012779;28;20500;-57
2022/03/16 05:26:28;;;;;;;134.63;76.63;;;;;;;;;;5012962;28;20822;-55
2022/03/16 05:28:54;;;;;;;133.20;70.18;;;;;;;;;;5012405;28;20213;-59
2022/03/16 05:31:21;;;;;;;137.80;73.70;;;;;;;;;;5012393;28;20187;-60
2022/03/16 05:33:47;;;;;;;135.38;71.97;;;;;;;;;;5012598;28;20180;-59
2022/03/16 05:36:13;;;;;;;136.57;68.28;;;;;;;;;;5012622;28;20173;-60
2022/03/16 05:38:39;;;;;;;137.10;71.33;;;;;;;;;;5012481;28;20220;-61
2022/03/16 05:41:05;;;;;;;135.20;70.33;;;;;;;;;;5012325;28;20451;-59
2022/03/16 05:43:31;;;;;;;136.98;70.35;;;;;;;;;;5012413;28;20849;-59
2022/03/16 05:45:57;;;;;;;130.85;69.68;;;;;;;;;;5012432;28;20580;-59
2022/03/16 05:48:23;;;;;;;132.47;70.13;;;;;;;;;;5011815;28;20220;-59
2022/03/16 05:50:49;;;;;;;133.03;72.23;;;;;;;;;;5012084;28;20408;-58
2022/03/16 05:53:15;;;;;;;133.57;72.05;;;;;;;;;;5012294;28;20461;-59
2022/03/16 05:55:42;;;;;;;134.73;71.37;;;;;;;;;;5012245;28;20257;-59
2022/03/16 05:58:08;;;;;;;133.75;72.03;;;;;;;;;;5012149;28;20428;-59
2022/03/16 06:00:35;;;;;;;125.47;67.97;;;;;;;;;;5012168;28;20204;-58
2022/03/16 06:03:01;;;;;;;132.30;70.70;;;;;;;;;;5012369;28;20179;-61
2022/03/16 06:05:27;;;;;;;129.77;70.20;;;;;;;;;;5016479;28;20174;-55
2022/03/16 06:07:53;;;;;;;129.43;70.93;;;;;;;;;;5012199;28;20328;-59
2022/03/16 06:10:19;;;;;;;127.38;75.70;;;;;;;;;;5012358;28;20261;-58
2022/03/16 06:12:52;;;;;;;137.73;72.88;;;;;;;;;;5012197;28;20205;-59
2022/03/16 06:15:18;;;;;;;130.18;72.40;;;;;;;;;;5012347;28;20264;-60
2022/03/16 06:17:44;;;;;;;116.60;68.95;;;;;;;;;;5012100;28;20203;-55
2022/03/16 06:20:10;;;;;;;111.33;66.10;;;;;;;;;;5011807;28;20541;-56
2022/03/16 06:22:36;;;;;;;119.65;70.50;;;;;;;;;;5012057;28;20834;-58
2022/03/16 06:25:02;;;;;;;118.10;69.33;;;;;;;;;;5011933;28;20262;-58
2022/03/16 06:27:28;;;;;;;116.47;70.65;;;;;;;;;;5011816;28;20828;-60
2022/03/16 06:29:54;;;;;;;121.45;72.07;;;;;;;;;;5011811;28;20526;-59
2022/03/16 06:32:20;;;;;;;118.80;72.03;;;;;;;;;;5011699;28;20253;-56
2022/03/16 06:34:46;;;;;;;128.37;69.67;;;;;;;;;;5011875;28;20502;-57
2022/03/16 06:37:13;;;;;;;132.90;72.45;;;;;;;;;;5011859;28;20438;-56
2022/03/16 06:39:39;;;;;;;141.15;74.20;;;;;;;;;;5011759;28;20656;-56
2022/03/16 06:42:05;;;;;;;137.05;70.20;;;;;;;;;;5011571;28;20277;-59
2022/03/16 06:44:31;;;;;;;143.38;73.38;;;;;;;;;;5011757;28;20186;-59
2022/03/16 06:46:57;;;;;;;138.47;72.70;;;;;;;;;;5011633;28;20615;-59
2022/03/16 06:49:23;;;;;;;141.45;75.38;;;;;;;;;;5011643;28;20461;-59
2022/03/16 06:51:49;;;;;;;129.87;69.63;;;;;;;;;;5011457;28;20177;-56
2022/03/16 06:54:15;;;;;;;131.63;72.03;;;;;;;;;;5011524;28;20404;-61
2022/03/16 06:56:41;;;;;;;144.57;76.60;;;;;;;;;;5011437;28;20425;-57
2022/03/16 06:59:07;;;;;;;145.17;76.43;;;;;;;;;;5012262;28;20423;-60
2022/03/16 07:01:33;;;;;;;114.43;71.28;;;;;;;;;;5015239;28;21014;-59
2022/03/16 07:03:59;;;;;;;127.37;73.27;;;;;;;;;;5015514;28;20301;-60
2022/03/16 07:06:25;;;;;;;134.13;72.97;;;;;;;;;;5015404;28;20918;-56
2022/03/16 07:08:51;;;;;;;133.07;73.47;;;;;;;;;;5014924;28;20468;-55
2022/03/16 07:11:17;;;;;;;137.50;75.27;;;;;;;;;;5015254;28;20404;-60
2022/03/16 07:14:30;;;;;;;140.15;82.40;;;;;;;;;;5015283;28;20958;-58
2022/03/16 07:16:29;;;;;;;140.48;78.60;;;;;;;;;;5015227;28;20531;-58
2022/03/16 07:18:55;;;;;;;140.20;77.05;;;;;;;;;;5015214;28;20585;-60
2022/03/16 07:21:21;;;;;;;129.20;75.70;;;;;;;;;;5014836;28;20189;-61
2022/03/16 07:23:47;;;;;;;139.70;80.82;;;;;;;;;;5014996;28;20696;-59
2022/03/16 07:26:13;;;;;;;140.60;79.03;;;;;;;;;;5015156;28;20181;-60
2022/03/16 07:28:39;;;;;;;134.40;80.00;;;;;;;;;;5013122;28;20470;-60
2022/03/16 07:31:05;;;;;;;128.37;80.17;;;;;;;;;;5014707;28;20431;-61
2022/03/16 07:33:31;;;;;;;132.53;75.73;;;;;;;;;;5014931;28;20404;-60
2022/03/16 07:35:57;;;;;;;137.18;79.38;;;;;;;;;;5014844;28;20432;-61
2022/03/16 07:38:23;;;;;;;135.73;80.27;;;;;;;;;;5014251;28;20243;-61
2022/03/16 07:40:49;;;;;;;130.70;82.50;;;;;;;;;;5014663;28;20432;-60
2022/03/16 07:43:15;;;;;;;134.25;80.50;;;;;;;;;;5014816;28;20412;-59
2022/03/16 07:45:41;;;;;;;125.47;82.60;;;;;;;;;;5014812;28;20200;-60
2022/03/16 07:48:07;;;;;;;130.77;77.63;;;;;;;;;;5014869;28;20456;-60
2022/03/16 07:50:34;;;;;;;128.05;79.03;;;;;;;;;;5014018;28;20495;-58
2022/03/16 07:53:00;;;;;;;105.20;73.65;;;;;;;;;;5014834;28;20634;-60
2022/03/16 07:55:26;;;;;;;110.40;76.00;;;;;;;;;;5014787;28;20206;-61
2022/03/16 07:57:54;;;;;;;97.82;70.13;;;;;;;;;;5014546;28;20821;-60
2022/03/16 08:00:20;;;;;;;91.00;77.35;;;;;;;;;;5013960;28;20177;-61
2022/03/16 08:02:46;;;;;;;81.55;70.32;;;;;;;;;;5013423;28;20181;-61
2022/03/16 08:05:13;;;;;;;66.90;61.00;;;;;;;;;;5014274;28;20176;-55
2022/03/16 08:07:39;;;;;;;70.43;63.55;;;;;;;;;;5013917;28;20475;-58
2022/03/16 08:10:05;;;;;;;60.42;55.13;;;;;;;;;;5013811;28;20580;-60
2022/03/16 08:12:31;;;;;;;61.35;56.00;;;;;;;;;;5014165;28;20176;-59
2022/03/16 08:14:58;;;;;;;56.47;51.57;;;;;;;;;;5014198;28;20178;-61
2022/03/16 08:17:23;;;;;;;62.67;57.00;;;;;;;;;;5014044;28;20428;-60
2022/03/16 08:19:49;;;;;;;53.23;49.13;;;;;;;;;;5013947;28;20727;-59
2022/03/16 08:22:32;;;;;;;55.10;50.80;;;;;;;;;;5013714;28;20496;-60
2022/03/16 08:25:02;;;;;;;60.00;54.92;;;;;;;;;;5013866;28;20471;-61
2022/03/16 08:27:28;;;;;;;55.78;51.22;;;;;;;;;;5013865;28;20212;-61
2022/03/16 08:29:55;;;;;;;44.10;40.90;;;;;;;;;;5013814;28;20174;-61
2022/03/16 08:32:21;;;;;;;57.00;52.45;;;;;;;;;;5013661;28;20182;-59
2022/03/16 08:34:47;;;;;;;47.63;44.20;;;;;;;;;;5018770;28;20181;-61
2022/03/16 08:37:13;;;;;;;45.75;42.45;;;;;;;;;;5014537;28;20193;-56
2022/03/16 08:39:40;;;;;;;43.67;40.67;;;;;;;;;;5013688;28;20201;-57
2022/03/16 08:42:07;;;;;;;46.30;43.03;;;;;;;;;;5013673;28;20693;-59
2022/03/16 08:44:32;;;;;;;43.00;40.20;;;;;;;;;;5013564;28;20184;-59
2022/03/16 08:46:58;;;;;;;30.87;29.17;;;;;;;;;;5013453;28;20681;-60
2022/03/16 08:49:24;;;;;;;45.70;42.57;;;;;;;;;;5013459;28;20400;-59
2022/03/16 08:51:50;;;;;;;41.90;39.10;;;;;;;;;;5013201;28;20491;-60
2022/03/16 08:54:16;;;;;;;31.50;29.80;;;;;;;;;;5013540;28;20423;-58
2022/03/16 08:56:43;;;;;;;31.33;29.65;;;;;;;;;;5013620;28;20412;-59
2022/03/16 08:59:09;;;;;;;39.03;36.63;;;;;;;;;;5013373;28;20170;-59
2022/03/16 09:01:35;;;;;;;40.00;37.53;;;;;;;;;;5013217;28;20182;-60
2022/03/16 09:04:02;;;;;;;39.00;36.67;;;;;;;;;;5013509;28;20188;-60
2022/03/16 09:06:27;;;;;;;46.60;43.47;;;;;;;;;;5013250;28;20408;-59
2022/03/16 09:08:53;;;;;;;51.83;48.13;;;;;;;;;;5012947;28;20232;-57
2022/03/16 09:11:19;;;;;;;64.20;58.97;;;;;;;;;;5012835;28;20444;-60
2022/03/16 09:13:47;;;;;;;66.63;61.00;;;;;;;;;;5012947;28;20432;-59
2022/03/16 09:16:13;;;;;;;69.45;63.65;;;;;;;;;;5013248;28;20217;-58
2022/03/16 09:18:39;;;;;;;74.53;67.97;;;;;;;;;;5013071;28;20228;-59
2022/03/16 09:21:05;;;;;;;81.60;73.60;;;;;;;;;;5012525;28;20428;-59
2022/03/16 09:23:34;;;;;;;82.10;73.90;;;;;;;;;;5012199;28;20408;-60
2022/03/16 09:26:00;;;;;;;93.70;81.25;;;;;;;;;;5012792;28;20489;-60
2022/03/16 09:28:27;;;;;;;84.25;75.00;;;;;;;;;;5012613;28;20278;-57
2022/03/16 09:30:53;;;;;;;93.10;78.43;;;;;;;;;;5012701;28;20220;-56
2022/03/16 09:33:21;;;;;;;103.55;81.75;;;;;;;;;;5015085;28;20201;-57
2022/03/16 09:35:48;;;;;;;103.53;83.43;;;;;;;;;;5012887;28;20174;-57
2022/03/16 09:38:14;;;;;;;97.03;80.25;;;;;;;;;;5013168;28;20600;-58
2022/03/16 09:40:41;;;;;;;82.13;73.40;;;;;;;;;;5012453;28;20189;-59
2022/03/16 09:43:08;;;;;;;74.70;68.35;;;;;;;;;;5012508;28;20415;-59
2022/03/16 09:45:40;;;;;;;84.85;76.15;;;;;;;;;;5012490;28;20213;-57
2022/03/16 09:48:07;;;;;;;105.40;84.15;;;;;;;;;;5012488;28;20570;-57
2022/03/16 09:50:33;;;;;;;103.95;79.25;;;;;;;;;;5012146;28;20197;-59
2022/03/16 09:52:59;;;;;;;112.27;90.70;;;;;;;;;;5012385;28;20193;-61
2022/03/16 09:55:25;;;;;;;108.53;83.20;;;;;;;;;;5012446;28;20407;-60
2022/03/16 09:57:51;;;;;;;98.97;87.67;;;;;;;;;;5012272;28;20624;-56
2022/03/16 10:00:18;;;;;;;104.43;91.77;;;;;;;;;;5012143;28;20820;-59
2022/03/16 10:02:44;;;;;;;110.28;93.20;;;;;;;;;;5012279;28;20439;-56
2022/03/16 10:05:10;;;;;;;98.47;88.07;;;;;;;;;;5012100;28;20572;-59
2022/03/16 10:07:37;;;;;;;102.57;92.77;;;;;;;;;;5013083;28;20559;-60
2022/03/16 10:15:36;;;;;;;97.85;89.22;;;;;;;;;;5011965;28;20208;-62
2022/03/16 10:18:03;;;;;;;118.13;102.07;;;;;;;;;;5011978;28;20205;-58
2022/03/16 10:20:36;;;;;;;132.65;107.25;;;;;;;;;;5011550;28;20186;-58
2022/03/16 10:23:05;;;;;;;137.02;104.38;;;;;;;;;;5012030;28;20257;-61
2022/03/16 10:25:51;;;;;;;140.32;109.88;;;;;;;;;;5011523;28;20185;-56
2022/03/16 10:28:18;;;;;;;147.50;109.32;;;;;;;;;;5010197;28;20212;-58
2022/03/16 10:30:58;;;;;;;148.43;109.53;;;;;;;;;;5011429;28;20180;-59
2022/03/16 10:33:24;;;;;;;148.27;114.35;;;;;;;;;;5011797;28;20644;-61
2022/03/16 10:35:57;;;;;;;151.35;121.78;;;;;;;;;;5011817;28;20173;-60
2022/03/16 10:38:24;;;;;;;138.70;112.25;;;;;;;;;;5011830;28;20204;-59
2022/03/16 10:40:50;;;;;;;145.07;116.93;;;;;;;;;;5010496;28;20174;-60
2022/03/16 10:48:59;;;;;;;124.93;114.65;;;;;;;;;;5011148;28;20727;-61
2022/03/16 10:51:25;;;;;;;145.00;131.65;;;;;;;;;;5011480;28;20197;-60
2022/03/16 10:53:52;;;;;;;156.73;142.70;;;;;;;;;;5010339;28;20214;-61
2022/03/16 10:56:19;;;;;;;152.45;137.73;;;;;;;;;;5011568;28;20937;-60
2022/03/16 10:58:46;;;;;;;172.23;154.57;;;;;;;;;;5011646;28;20212;-61
2022/03/16 11:01:13;;;;;;;171.40;153.17;;;;;;;;;;5011394;28;20649;-59
2022/03/16 11:03:41;;;;;;;176.93;160.20;;;;;;;;;;5011587;28;20412;-61
2022/03/16 11:06:08;;;;;;;173.80;156.17;;;;;;;;;;5011533;28;20702;-59
2022/03/16 11:08:36;;;;;;;183.73;166.33;;;;;;;;;;5011616;28;20474;-60
2022/03/16 11:13:49;;;;;;;182.55;162.93;;;;;;;;;;4961194;28;20189;-61
2022/03/16 11:16:20;;;;;;;201.93;180.90;;;;;;;;;;4991468;28;20265;-61
2022/03/16 11:18:48;;;;;;;215.27;192.38;;;;;;;;;;4991665;28;20440;-61
2022/03/16 11:21:15;;;;;;;233.77;209.67;;;;;;;;;;4991728;28;20236;-60
2022/03/16 11:26:28;;;;;;;227.13;205.70;;;;;;;;;;4991592;28;20239;-60
2022/03/16 11:29:00;;;;;;;227.87;206.23;;;;;;;;;;4991028;28;20461;-56
2022/03/16 11:31:29;;;;;;;244.23;220.93;;;;;;;;;;5009955;28;20504;-59
2022/03/16 11:33:58;;;;;;;247.63;225.13;;;;;;;;;;5007425;28;20441;-59
2022/03/16 11:36:31;;;;;;;270.93;248.53;;;;;;;;;;5010575;28;20424;-60
2022/03/16 11:38:58;;;;;;;268.27;245.67;;;;;;;;;;5013123;28;20424;-60
2022/03/16 11:41:25;;;;;;;260.23;243.20;;;;;;;;;;5012572;28;20912;-60
2022/03/16 11:43:57;;;;;;;256.60;237.00;;;;;;;;;;5012917;28;20402;-60
2022/03/16 11:46:31;;;;;;;238.20;221.00;;;;;;;;;;5013448;28;20818;-60
2022/03/16 11:49:04;;;;;;;230.90;214.33;;;;;;;;;;5015953;28;20467;-60
2022/03/16 11:51:32;;;;;;;219.68;201.45;;;;;;;;;;5015037;28;20413;-60
2022/03/16 11:54:05;;;;;;;206.88;190.98;;;;;;;;;;5014436;28;20166;-59
2022/03/16 11:56:45;;;;;;;210.33;192.43;;;;;;;;;;5015085;28;20170;-61
2022/03/16 11:59:17;;;;;;;205.93;186.18;;;;;;;;;;5016710;28;20415;-59
2022/03/16 12:01:48;;;;;;;217.33;195.30;;;;;;;;;;5016241;28;20231;-59
2022/03/16 12:04:15;;;;;;;201.43;186.90;;;;;;;;;;5013658;28;20495;-60
2022/03/16 12:07:12;;;;;;;177.40;166.10;;;;;;;;;;5015318;28;20409;-59
2022/03/16 12:09:47;;;;;;;153.43;144.37;;;;;;;;;;5000830;28;20566;-59
2022/03/16 12:14:59;;;;;;;223.30;203.90;;;;;;;;;;5013475;28;20767;-56
2022/03/16 12:17:25;;;;;;;213.53;193.40;;;;;;;;;;5012418;28;20424;-60
2022/03/16 12:20:11;;;;;;;203.73;183.73;;;;;;;;;;5012483;28;20911;-59
2022/03/16 12:22:44;;;;;;;199.73;179.17;;;;;;;;;;5011754;28;20423;-61
2022/03/16 12:25:27;;;;;;;191.07;171.68;;;;;;;;;;5011878;28;20458;-59
2022/03/16 12:30:45;;;;;;;185.60;151.18;;;;;;;;;;5010031;28;20717;-59
2022/03/16 12:33:12;;;;;;;193.32;155.80;;;;;;;;;;5012576;28;20172;-58
2022/03/16 12:35:38;;;;;;;196.80;154.52;;;;;;;;;;5012590;28;20188;-58
2022/03/16 12:38:09;;;;;;;181.75;147.27;;;;;;;;;;5012987;28;20204;-60
2022/03/16 12:42:30;;;;;;;199.23;145.93;;;;;;;;;;5013216;28;20663;-60
2022/03/16 12:43:22;;;;;;;204.23;142.95;;;;;;;;;;5013186;28;20552;-58
2022/03/16 12:45:49;;;;;;;186.03;137.33;;;;;;;;;;5013207;28;20260;-58
2022/03/16 12:48:19;;;;;;;173.40;134.25;;;;;;;;;;5013086;28;20455;-60
2022/03/16 12:50:47;;;;;;;171.77;132.52;;;;;;;;;;5010627;28;20174;-60
2022/03/16 12:53:13;;;;;;;183.35;137.82;;;;;;;;;;5016120;28;20638;-58
2022/03/16 12:55:54;;;;;;;182.07;135.90;;;;;;;;;;5013269;28;20231;-59
2022/03/16 12:58:27;;;;;;;151.43;132.48;;;;;;;;;;5011255;28;20432;-58
2022/03/16 13:00:59;;;;;;;174.82;137.30;;;;;;;;;;5009900;28;20182;-59
2022/03/16 13:03:25;;;;;;;184.35;138.32;;;;;;;;;;5010579;28;20201;-60
2022/03/16 13:05:52;;;;;;;183.80;136.73;;;;;;;;;;5011249;28;20604;-59
2022/03/16 13:08:23;;;;;;;167.35;137.20;;;;;;;;;;5012547;28;20215;-57
2022/03/16 13:11:15;;;;;;;155.57;134.95;;;;;;;;;;5010142;28;20183;-58
2022/03/16 13:13:47;;;;;;;182.32;132.07;;;;;;;;;;5012556;28;20169;-60
2022/03/16 13:16:32;;;;;;;145.88;130.90;;;;;;;;;;5012201;28;20256;-60
2022/03/16 13:18:58;;;;;;;147.70;132.10;;;;;;;;;;5011685;28;20211;-57
2022/03/16 13:21:25;;;;;;;182.68;138.43;;;;;;;;;;5012033;28;20634;-60
2022/03/16 13:24:10;;;;;;;191.68;146.88;;;;;;;;;;5012506;28;20188;-60
2022/03/16 13:26:38;;;;;;;193.85;145.63;;;;;;;;;;5012443;28;20184;-59
2022/03/16 13:29:05;;;;;;;162.88;143.70;;;;;;;;;;5013076;28;20207;-60
2022/03/16 13:31:32;;;;;;;158.30;142.83;;;;;;;;;;5012944;28;20177;-60
2022/03/16 13:34:01;;;;;;;202.90;153.05;;;;;;;;;;5013034;28;20408;-60
2022/03/16 13:36:38;;;;;;;191.45;154.15;;;;;;;;;;5013435;28;20189;-60
2022/03/16 13:39:23;;;;;;;201.85;160.68;;;;;;;;;;5011579;28;20187;-60
2022/03/16 13:42:10;;;;;;;208.60;160.50;;;;;;;;;;5012359;28;20725;-61
2022/03/16 13:44:40;;;;;;;221.10;162.35;;;;;;;;;;5013378;28;20192;-58
2022/03/16 13:47:12;;;;;;;219.40;171.63;;;;;;;;;;5013501;28;20220;-60
2022/03/16 13:49:39;;;;;;;219.27;182.57;;;;;;;;;;5010956;28;20220;-60
2022/03/16 13:52:06;;;;;;;205.17;182.90;;;;;;;;;;5013405;28;20257;-60
2022/03/16 13:54:33;;;;;;;209.25;175.85;;;;;;;;;;4995141;28;20405;-60
2022/03/16 13:57:08;;;;;;;234.65;179.82;;;;;;;;;;5013715;28;20211;-60
2022/03/16 13:59:35;;;;;;;226.98;181.75;;;;;;;;;;5014022;28;20177;-59
2022/03/16 14:02:11;;;;;;;218.95;183.55;;;;;;;;;;5013372;28;20193;-59
2022/03/16 14:04:39;;;;;;;214.70;174.70;;;;;;;;;;5014055;28;20537;-59
2022/03/16 14:07:23;;;;;;;196.27;168.35;;;;;;;;;;5012489;28;20722;-59
2022/03/16 14:09:50;;;;;;;184.35;167.80;;;;;;;;;;5011773;28;20239;-58
2022/03/16 14:12:16;;;;;;;178.68;159.00;;;;;;;;;;4993279;28;20191;-57
2022/03/16 14:14:45;;;;;;;192.85;164.30;;;;;;;;;;5009486;28;20192;-59
2022/03/16 14:17:11;;;;;;;185.97;164.47;;;;;;;;;;5010909;28;20284;-59
2022/03/16 14:19:38;;;;;;;191.60;163.88;;;;;;;;;;5010981;28;20475;-59
2022/03/16 14:22:07;;;;;;;197.27;166.30;;;;;;;;;;5010830;28;20177;-57
2022/03/16 14:24:34;;;;;;;196.25;175.60;;;;;;;;;;5010704;28;20188;-58
2022/03/16 14:27:15;;;;;;;205.68;173.82;;;;;;;;;;5009832;28;20238;-59
2022/03/16 14:29:48;;;;;;;198.48;162.30;;;;;;;;;;5008087;28;20880;-57